Time;durP1;ratioP1;P1;durP2;ratioP2;P2;SDS_P1;SDS_P2;PMS_P1;PMS_P2;Temp;Humidity;BMP_temperature;BMP_pressure;BME280_temperature;BME280_humidity;BME280_pressure;Samples;Min_cycle;Max_cycle;Signal;HPM_P1;HPM_P2
2024/03/22 00:00:11;;;;;;;47.58;24.60;;;7.60;99.90;;;;;;5021750;28;20041;-62
2024/03/22 00:02:57;;;;;;;43.67;22.02;;;7.60;99.90;;;;;;5014482;28;20057;-62
2024/03/22 00:05:42;;;;;;;43.70;22.65;;;7.70;99.90;;;;;;5016406;28;20518;-62
2024/03/22 00:08:28;;;;;;;47.63;23.60;;;7.80;99.90;;;;;;5015833;28;20033;-62
2024/03/22 00:11:14;;;;;;;43.42;22.10;;;7.80;99.90;;;;;;5016179;28;20066;-62
2024/03/22 00:14:01;;;;;;;48.28;23.70;;;7.90;99.90;;;;;;5013877;28;20038;-62
2024/03/22 00:16:47;;;;;;;;;;;7.90;99.90;;;;;;5014781;28;20025;-62
2024/03/22 00:19:33;;;;;;;39.17;20.38;;;7.90;99.90;;;;;;5003013;28;19909;-62
2024/03/22 00:22:18;;;;;;;39.33;20.17;;;7.90;99.90;;;;;;5003710;28;20030;-62
2024/03/22 00:25:06;;;;;;;38.60;19.60;;;7.90;99.90;;;;;;5006048;28;20073;-62
2024/03/22 00:27:51;;;;;;;42.92;21.38;;;8.00;99.90;;;;;;5000382;28;20586;-62
2024/03/22 00:30:37;;;;;;;44.53;20.35;;;8.00;99.90;;;;;;5004707;28;20048;-62
2024/03/22 00:33:23;;;;;;;32.88;17.45;;;8.00;99.90;;;;;;5001920;28;20527;-62
2024/03/22 00:36:09;;;;;;;41.90;20.10;;;8.00;99.90;;;;;;5010281;28;20095;-62
2024/03/22 00:38:55;;;;;;;36.63;20.20;;;8.10;99.90;;;;;;5003137;28;20080;-62
2024/03/22 00:41:41;;;;;;;39.55;20.35;;;8.10;99.90;;;;;;5011659;28;20041;-62
2024/03/22 00:44:27;;;;;;;36.80;18.92;;;8.10;99.90;;;;;;5007196;28;20446;-62
2024/03/22 00:47:13;;;;;;;43.77;21.53;;;8.10;99.90;;;;;;5006881;28;20366;-62
2024/03/22 00:49:58;;;;;;;38.88;19.15;;;8.10;99.90;;;;;;5004827;28;20061;-62
2024/03/22 00:52:44;;;;;;;40.05;20.35;;;8.10;99.90;;;;;;5009970;28;20090;-62
2024/03/22 00:55:30;;;;;;;40.65;21.92;;;8.10;99.90;;;;;;5008474;28;20126;-62
2024/03/22 00:58:18;;;;;;;43.33;23.38;;;8.10;99.90;;;;;;5005391;28;20038;-62
2024/03/22 01:01:05;;;;;;;45.03;22.77;;;8.20;99.90;;;;;;5007816;28;20737;-62
2024/03/22 01:03:51;;;;;;;45.78;23.15;;;8.10;99.90;;;;;;5004390;28;20109;-62
2024/03/22 01:06:37;;;;;;;44.95;22.48;;;8.10;99.90;;;;;;5006809;28;20053;-62
2024/03/22 01:09:23;;;;;;;49.63;24.30;;;8.10;99.90;;;;;;5003812;28;20030;-62
2024/03/22 01:12:08;;;;;;;45.17;22.88;;;8.20;99.90;;;;;;5006409;28;20033;-62
2024/03/22 01:14:54;;;;;;;45.65;23.02;;;8.10;99.90;;;;;;5006485;28;20042;-62
2024/03/22 01:17:41;;;;;;;42.63;22.70;;;8.10;99.90;;;;;;4999220;28;20482;-62
2024/03/22 01:20:27;;;;;;;47.72;24.60;;;8.10;99.90;;;;;;5003605;28;20034;-62
2024/03/22 01:23:12;;;;;;;51.10;25.77;;;8.10;99.90;;;;;;5005315;28;20159;-62
2024/03/22 01:25:58;;;;;;;43.20;22.30;;;8.10;99.90;;;;;;5009404;28;20041;-62
2024/03/22 01:28:44;;;;;;;44.25;22.83;;;8.10;99.90;;;;;;5004936;28;20905;-62
2024/03/22 01:31:30;;;;;;;44.90;21.88;;;8.10;99.90;;;;;;5007123;28;20030;-62
2024/03/22 01:34:16;;;;;;;51.13;25.77;;;8.10;99.90;;;;;;5005734;28;20534;-62
2024/03/22 01:37:02;;;;;;;49.95;24.15;;;8.10;99.90;;;;;;5010676;28;20121;-62
2024/03/22 01:39:48;;;;;;;45.65;24.08;;;8.10;99.90;;;;;;5001027;28;20069;-62
2024/03/22 01:42:34;;;;;;;47.35;23.73;;;8.10;99.90;;;;;;5007361;28;20127;-62
2024/03/22 01:45:20;;;;;;;44.97;23.40;;;8.10;99.90;;;;;;5008972;28;20400;-62
2024/03/22 01:48:07;;;;;;;44.17;23.33;;;8.10;99.90;;;;;;5003370;28;20112;-62
2024/03/22 01:50:53;;;;;;;;;;;8.10;99.90;;;;;;5005930;28;20040;-62
2024/03/22 01:53:39;;;;;;;45.85;22.15;;;8.20;99.90;;;;;;5005976;28;19943;-62
2024/03/22 01:56:25;;;;;;;45.33;22.80;;;8.20;99.90;;;;;;5004103;28;20045;-62
2024/03/22 01:59:11;;;;;;;48.88;24.13;;;8.10;99.90;;;;;;5007326;28;20045;-62
2024/03/22 02:01:56;;;;;;;46.60;22.47;;;8.10;99.90;;;;;;5004016;28;20042;-62
2024/03/22 02:04:42;;;;;;;40.65;20.92;;;8.10;99.90;;;;;;4998007;28;20280;-62
2024/03/22 02:07:30;;;;;;;46.60;22.30;;;8.20;99.90;;;;;;5005538;28;20616;-62
2024/03/22 02:10:16;;;;;;;44.20;21.52;;;8.10;99.90;;;;;;5003754;28;20033;-62
2024/03/22 02:13:02;;;;;;;42.78;20.05;;;8.10;99.90;;;;;;4998781;28;20030;-62
2024/03/22 02:15:48;;;;;;;38.97;19.48;;;8.10;99.90;;;;;;5003758;28;20080;-62
2024/03/22 02:18:34;;;;;;;46.45;20.00;;;8.10;99.90;;;;;;5000097;28;20029;-62
2024/03/22 02:21:20;;;;;;;40.90;20.38;;;8.20;99.90;;;;;;5010653;28;20116;-61
2024/03/22 02:24:06;;;;;;;37.10;16.77;;;8.10;99.90;;;;;;5004732;28;20133;-61
2024/03/22 02:26:52;;;;;;;37.63;17.73;;;8.10;99.90;;;;;;5003716;28;20052;-61
2024/03/22 02:29:38;;;;;;;42.38;20.02;;;8.20;99.90;;;;;;5002541;28;20119;-61
2024/03/22 02:32:24;;;;;;;42.47;19.02;;;8.20;99.90;;;;;;5004922;28;20064;-60
2024/03/22 02:35:10;;;;;;;40.50;18.17;;;8.20;99.90;;;;;;5003569;28;20041;-61
2024/03/22 02:37:58;;;;;;;35.40;17.95;;;8.30;99.90;;;;;;5006937;28;20108;-61
2024/03/22 02:40:45;;;;;;;38.60;17.90;;;8.30;99.90;;;;;;5004830;28;20037;-61
2024/03/22 02:43:31;;;;;;;37.47;18.65;;;8.30;99.90;;;;;;5001671;28;20224;-61
2024/03/22 02:46:17;;;;;;;41.47;20.00;;;8.40;99.90;;;;;;5007587;28;20124;-61
2024/03/22 02:49:02;;;;;;;39.25;19.50;;;8.40;99.90;;;;;;4999341;28;20125;-61
2024/03/22 02:51:48;;;;;;;35.22;18.48;;;8.30;99.90;;;;;;5011829;28;20033;-61
2024/03/22 02:54:34;;;;;;;41.45;20.02;;;8.40;99.90;;;;;;5003211;28;20035;-61
2024/03/22 02:57:21;;;;;;;40.53;19.02;;;8.40;99.90;;;;;;5004160;28;20546;-61
2024/03/22 03:00:07;;;;;;;36.40;18.15;;;8.30;99.90;;;;;;5000590;28;20033;-61
2024/03/22 03:02:53;;;;;;;35.35;17.50;;;8.40;99.90;;;;;;5004451;28;20072;-61
2024/03/22 03:05:41;;;;;;;31.52;15.07;;;8.40;99.90;;;;;;5000788;28;20037;-61
2024/03/22 03:08:26;;;;;;;34.15;16.92;;;8.40;99.90;;;;;;4998654;28;20503;-61
2024/03/22 03:11:14;;;;;;;34.15;16.52;;;8.50;99.90;;;;;;5004733;28;20579;-61
2024/03/22 03:14:00;;;;;;;33.88;16.15;;;8.40;99.90;;;;;;5001643;28;20472;-61
2024/03/22 03:16:46;;;;;;;32.07;15.50;;;8.50;99.90;;;;;;5004583;28;20034;-61
2024/03/22 03:19:32;;;;;;;31.20;15.40;;;8.50;99.90;;;;;;4998567;28;20033;-59
2024/03/22 03:22:18;;;;;;;30.38;14.45;;;8.50;99.90;;;;;;5002974;28;20034;-61
2024/03/22 03:25:04;;;;;;;30.75;15.35;;;8.60;99.90;;;;;;5000074;28;20027;-61
2024/03/22 03:27:50;;;;;;;26.10;13.15;;;8.60;99.90;;;;;;5001564;28;20124;-61
2024/03/22 03:30:36;;;;;;;27.23;14.02;;;8.60;99.90;;;;;;5006196;28;20034;-61
2024/03/22 03:33:21;;;;;;;24.33;13.65;;;8.70;99.90;;;;;;5001024;28;20049;-61
2024/03/22 03:36:07;;;;;;;29.55;14.38;;;8.70;99.90;;;;;;5005746;28;20372;-61
2024/03/22 03:38:53;;;;;;;23.80;12.97;;;8.80;99.90;;;;;;5000881;28;20094;-61
2024/03/22 03:41:39;;;;;;;28.63;14.27;;;8.80;99.90;;;;;;5004481;28;20026;-61
2024/03/22 03:44:25;;;;;;;22.60;12.47;;;8.80;99.90;;;;;;5002183;28;20686;-61
2024/03/22 03:47:11;;;;;;;30.80;14.35;;;8.80;99.90;;;;;;5008163;28;20042;-63
2024/03/22 03:49:57;;;;;;;28.70;13.75;;;8.70;99.90;;;;;;5002444;28;20028;-61
2024/03/22 03:52:43;;;;;;;30.52;14.07;;;8.70;99.90;;;;;;4999796;28;20022;-61
2024/03/22 03:55:29;;;;;;;24.98;12.77;;;8.70;99.90;;;;;;5007899;28;20037;-61
2024/03/22 03:58:17;;;;;;;30.50;12.95;;;8.70;99.90;;;;;;5001588;28;20121;-61
2024/03/22 04:01:09;;;;;;;29.38;13.75;;;8.70;99.90;;;;;;5006296;28;20037;-61
2024/03/22 04:03:55;;;;;;;24.90;12.75;;;8.70;99.90;;;;;;4997777;28;20064;-62
2024/03/22 04:06:41;;;;;;;24.65;12.73;;;8.60;99.90;;;;;;5007852;28;20026;-62
2024/03/22 04:09:27;;;;;;;24.90;13.05;;;8.70;99.90;;;;;;5004416;28;20037;-62
2024/03/22 04:12:13;;;;;;;26.15;12.77;;;8.70;99.90;;;;;;5007083;28;20040;-61
2024/03/22 04:14:59;;;;;;;27.60;12.82;;;8.80;99.90;;;;;;5007298;28;20037;-61
2024/03/22 04:17:45;;;;;;;26.33;13.35;;;8.80;99.90;;;;;;5003501;28;20045;-62
2024/03/22 04:20:30;;;;;;;29.30;13.77;;;8.80;99.90;;;;;;5006651;28;20037;-61
2024/03/22 04:23:16;;;;;;;28.83;13.77;;;8.80;99.90;;;;;;5004422;28;20030;-61
2024/03/22 04:26:03;;;;;;;27.52;13.43;;;8.80;99.90;;;;;;5004818;28;20064;-61
2024/03/22 04:28:49;;;;;;;28.35;13.88;;;8.80;99.90;;;;;;5001258;28;20034;-61
2024/03/22 04:31:34;;;;;;;28.50;13.67;;;8.80;99.90;;;;;;5006597;28;20178;-61
2024/03/22 04:34:20;;;;;;;26.95;12.65;;;8.80;99.90;;;;;;5002258;28;20033;-61
2024/03/22 04:37:06;;;;;;;29.30;13.93;;;8.80;99.90;;;;;;5005542;28;20034;-61
2024/03/22 04:39:52;;;;;;;28.35;13.57;;;8.80;99.90;;;;;;5007447;28;20088;-62
2024/03/22 04:42:38;;;;;;;28.77;13.88;;;8.90;99.90;;;;;;5002544;28;20049;-62
2024/03/22 04:45:24;;;;;;;27.20;13.20;;;8.80;99.90;;;;;;5003726;28;20034;-62
2024/03/22 04:48:10;;;;;;;28.38;13.57;;;8.90;99.90;;;;;;4997526;28;20034;-62
2024/03/22 04:50:55;;;;;;;23.20;11.23;;;8.90;99.90;;;;;;5007184;28;20029;-62
2024/03/22 04:53:41;;;;;;;29.33;13.85;;;8.90;99.90;;;;;;5002531;28;20559;-62
2024/03/22 04:56:27;;;;;;;30.92;13.75;;;8.90;99.90;;;;;;5004961;28;20065;-62
2024/03/22 04:59:13;;;;;;;27.63;14.07;;;8.90;99.90;;;;;;4999222;28;20091;-62
2024/03/22 05:01:59;;;;;;;28.20;13.57;;;8.90;99.90;;;;;;5001626;28;20049;-62
2024/03/22 05:04:45;;;;;;;23.48;12.90;;;8.80;99.90;;;;;;5003062;28;20038;-62
2024/03/22 05:07:31;;;;;;;24.10;13.55;;;8.80;99.90;;;;;;5005923;28;20044;-62
2024/03/22 05:10:16;;;;;;;29.53;13.40;;;8.80;99.90;;;;;;5002187;28;20037;-62
2024/03/22 05:13:02;;;;;;;30.08;14.45;;;8.80;99.90;;;;;;4996050;28;20457;-62
2024/03/22 05:15:48;;;;;;;24.33;13.27;;;8.80;99.90;;;;;;5004929;28;20034;-62
2024/03/22 05:18:34;;;;;;;25.80;13.73;;;8.80;99.90;;;;;;5000604;28;21040;-62
2024/03/22 05:21:20;;;;;;;29.15;14.98;;;8.80;99.90;;;;;;5003378;28;20030;-62
2024/03/22 05:24:06;;;;;;;25.25;13.30;;;8.80;99.90;;;;;;5001745;28;20439;-63
2024/03/22 05:26:52;;;;;;;28.98;13.82;;;8.80;99.90;;;;;;5006000;28;20030;-63
2024/03/22 05:29:38;;;;;;;28.67;14.65;;;8.90;99.90;;;;;;5000016;28;20044;-62
2024/03/22 05:32:25;;;;;;;25.63;11.90;;;8.90;99.90;;;;;;5004462;28;20037;-62
2024/03/22 05:35:11;;;;;;;24.70;12.60;;;8.90;99.90;;;;;;4987619;28;20022;-62
2024/03/22 05:37:57;;;;;;;24.20;11.65;;;8.90;99.90;;;;;;5001270;28;20500;-63
2024/03/22 05:40:45;;;;;;;29.10;13.15;;;8.90;99.90;;;;;;5003211;28;20053;-62
2024/03/22 05:43:30;;;;;;;24.10;12.45;;;8.90;99.90;;;;;;5000651;28;20064;-62
2024/03/22 05:46:16;;;;;;;33.05;14.70;;;8.90;99.90;;;;;;5005282;28;20112;-63
2024/03/22 05:49:02;;;;;;;22.92;12.68;;;8.90;99.90;;;;;;4999352;28;20041;-62
2024/03/22 05:51:48;;;;;;;28.40;12.80;;;8.90;99.90;;;;;;5002557;28;20030;-63
2024/03/22 05:54:35;;;;;;;26.20;13.60;;;9.00;99.90;;;;;;5000131;28;20065;-63
2024/03/22 05:57:21;;;;;;;30.90;13.50;;;9.00;99.90;;;;;;5004338;28;20065;-63
2024/03/22 06:00:08;;;;;;;28.85;14.80;;;9.00;99.90;;;;;;4986875;28;20057;-63
2024/03/22 06:02:54;;;;;;;;;;;9.00;99.90;;;;;;5023460;28;20221;-63
2024/03/22 06:05:40;;;;;;;28.80;14.65;;;9.10;99.90;;;;;;5022516;28;20286;-64
2024/03/22 06:08:27;;;;;;;31.75;16.63;;;9.00;99.90;;;;;;5014264;28;20037;-63
2024/03/22 06:11:12;;;;;;;26.55;14.23;;;9.10;99.90;;;;;;5021057;28;20036;-62
2024/03/22 06:13:58;;;;;;;29.88;16.15;;;9.10;99.90;;;;;;5017086;28;20096;-63
2024/03/22 06:16:44;;;;;;;30.90;15.90;;;9.10;99.90;;;;;;5022313;28;20037;-63
2024/03/22 06:19:30;;;;;;;33.07;15.87;;;9.10;99.90;;;;;;5018798;28;20076;-63
2024/03/22 06:22:16;;;;;;;34.20;15.85;;;9.10;99.90;;;;;;5023545;28;20047;-64
2024/03/22 06:25:03;;;;;;;27.87;16.63;;;9.20;99.90;;;;;;5021367;28;20037;-65
2024/03/22 06:27:49;;;;;;;;;;;9.30;99.90;;;;;;5021353;28;20030;-64
2024/03/22 06:30:35;;;;;;;27.30;16.60;;;9.30;99.90;;;;;;5026018;28;19924;-64
2024/03/22 06:33:21;;;;;;;30.02;16.25;;;9.40;99.90;;;;;;5023476;28;20096;-63
2024/03/22 06:36:08;;;;;;;32.05;17.15;;;9.40;99.90;;;;;;5024481;28;20113;-65
2024/03/22 06:38:54;;;;;;;29.13;16.33;;;9.50;99.90;;;;;;5016903;28;20103;-63
2024/03/22 06:41:40;;;;;;;38.13;19.45;;;9.60;99.90;;;;;;5023019;28;20044;-63
2024/03/22 06:44:26;;;;;;;36.67;19.80;;;9.60;99.90;;;;;;5020978;28;20049;-64
2024/03/22 06:47:12;;;;;;;36.15;17.55;;;9.70;99.90;;;;;;5021472;28;20037;-64
2024/03/22 06:49:58;;;;;;;60.17;28.00;;;9.80;99.90;;;;;;5022731;28;20070;-62
2024/03/22 06:52:44;;;;;;;51.58;26.48;;;9.80;99.90;;;;;;5023562;28;20325;-64
2024/03/22 06:55:30;;;;;;;38.27;20.93;;;9.90;99.90;;;;;;5018927;28;20579;-63
2024/03/22 06:58:15;;;;;;;38.92;22.58;;;9.90;99.90;;;;;;5021717;28;20116;-63
2024/03/22 07:01:01;;;;;;;41.45;21.80;;;9.90;99.90;;;;;;5023040;28;20111;-61
2024/03/22 07:03:47;;;;;;;42.53;20.77;;;9.90;99.90;;;;;;5022714;28;20024;-61
2024/03/22 07:06:33;;;;;;;44.53;22.60;;;10.00;99.90;;;;;;5022041;28;20524;-62
2024/03/22 07:09:19;;;;;;;43.88;23.20;;;10.00;99.90;;;;;;5018615;28;20030;-61
2024/03/22 07:12:05;;;;;;;42.13;23.73;;;10.00;99.90;;;;;;5023767;28;20030;-61
2024/03/22 07:14:51;;;;;;;47.65;24.85;;;10.00;99.90;;;;;;5022947;28;20084;-61
2024/03/22 07:17:36;;;;;;;43.47;24.10;;;10.00;99.90;;;;;;5023518;28;20044;-63
2024/03/22 07:20:22;;;;;;;41.72;24.63;;;10.00;99.90;;;;;;5023539;28;20083;-62
2024/03/22 07:23:08;;;;;;;49.28;25.60;;;10.10;99.90;;;;;;5017207;28;20030;-62
2024/03/22 07:25:54;;;;;;;54.17;28.43;;;10.10;99.90;;;;;;5023325;28;20522;-62
2024/03/22 07:28:40;;;;;;;52.13;27.25;;;10.20;99.90;;;;;;5024261;28;22189;-63
2024/03/22 07:31:26;;;;;;;42.80;24.90;;;10.30;99.90;;;;;;5034669;28;20041;-62
2024/03/22 07:34:12;;;;;;;50.03;26.95;;;10.40;99.90;;;;;;5024067;28;20037;-61
2024/03/22 07:36:58;;;;;;;50.78;26.75;;;10.50;99.90;;;;;;5015042;28;20091;-62
2024/03/22 07:39:44;;;;;;;55.70;25.13;;;10.60;99.90;;;;;;5021013;28;20101;-62
2024/03/22 07:42:30;;;;;;;47.70;26.05;;;10.60;99.90;;;;;;5027306;28;20044;-62
2024/03/22 07:45:16;;;;;;;52.93;25.47;;;10.60;99.90;;;;;;5028972;28;20486;-62
2024/03/22 07:48:02;;;;;;;52.67;25.65;;;10.70;99.90;;;;;;5026391;28;20065;-62
2024/03/22 07:50:59;;;;;;;51.42;25.65;;;10.60;99.90;;;;;;5029976;28;20088;-62
2024/03/22 07:53:45;;;;;;;46.08;24.05;;;10.50;99.90;;;;;;5025687;28;20052;-62
2024/03/22 07:56:31;;;;;;;46.00;24.90;;;10.50;99.90;;;;;;5026252;28;20055;-62
2024/03/22 07:59:17;;;;;;;46.90;25.77;;;10.50;99.90;;;;;;5023097;28;20455;-61
2024/03/22 08:02:03;;;;;;;49.45;25.65;;;10.50;99.90;;;;;;5022250;28;20043;-62
2024/03/22 08:04:49;;;;;;;46.77;25.03;;;10.60;99.90;;;;;;5020716;28;20405;-61
2024/03/22 08:07:35;;;;;;;42.15;24.90;;;10.60;99.90;;;;;;5024139;28;20040;-62
2024/03/22 08:10:20;;;;;;;40.80;24.08;;;10.70;99.90;;;;;;5026699;28;20542;-62
2024/03/22 08:13:06;;;;;;;44.00;24.88;;;10.70;99.90;;;;;;5020568;28;20105;-62
2024/03/22 08:15:52;;;;;;;41.33;22.30;;;10.80;99.90;;;;;;5026781;28;20053;-62
2024/03/22 08:18:38;;;;;;;44.47;23.48;;;10.90;99.90;;;;;;5023636;28;20418;-61
2024/03/22 08:21:24;;;;;;;47.57;23.80;;;11.00;99.90;;;;;;5025393;28;20029;-62
2024/03/22 08:24:10;;;;;;;41.07;23.47;;;10.90;99.90;;;;;;5022151;28;20033;-61
2024/03/22 08:26:56;;;;;;;38.88;22.80;;;10.90;99.90;;;;;;5015360;28;20044;-62
2024/03/22 08:29:42;;;;;;;34.38;20.92;;;10.80;99.90;;;;;;5027037;28;20072;-62
2024/03/22 08:32:28;;;;;;;38.20;21.00;;;10.90;99.90;;;;;;5029103;28;20040;-62
2024/03/22 08:35:14;;;;;;;39.05;21.15;;;10.90;99.90;;;;;;5025913;28;20129;-62
2024/03/22 08:38:00;;;;;;;37.73;21.00;;;10.90;99.90;;;;;;5023899;28;20034;-61
2024/03/22 08:40:46;;;;;;;35.33;20.73;;;10.80;99.90;;;;;;5029591;28;20315;-62
2024/03/22 08:43:32;;;;;;;43.75;21.45;;;10.80;99.90;;;;;;5020619;28;20237;-62
2024/03/22 08:46:17;;;;;;;37.60;19.83;;;10.90;99.90;;;;;;5030897;28;20550;-61
2024/03/22 08:49:03;;;;;;;35.75;20.33;;;10.90;99.90;;;;;;5025346;28;20036;-61
2024/03/22 08:51:49;;;;;;;36.47;19.40;;;10.90;99.90;;;;;;5023691;28;20139;-62
2024/03/22 08:54:35;;;;;;;35.47;18.73;;;11.10;99.90;;;;;;5022827;28;20127;-62
2024/03/22 08:57:22;;;;;;;39.22;18.95;;;11.20;99.90;;;;;;5033129;28;20053;-62
2024/03/22 09:00:08;;;;;;;34.75;16.02;;;11.20;99.90;;;;;;5010985;28;20493;-62
2024/03/22 09:02:54;;;;;;;33.80;17.85;;;11.30;99.90;;;;;;5023435;28;20168;-62
2024/03/22 09:05:41;;;;;;;37.53;17.88;;;11.30;99.90;;;;;;5032233;28;20033;-62
2024/03/22 09:08:29;;;;;;;29.75;17.23;;;11.40;99.90;;;;;;5022651;28;20026;-62
2024/03/22 09:11:15;;;;;;;28.65;15.98;;;11.40;99.90;;;;;;5026969;28;20026;-62
2024/03/22 09:14:00;;;;;;;29.95;15.68;;;11.50;99.90;;;;;;5018820;28;20037;-61
2024/03/22 09:16:46;;;;;;;26.73;15.05;;;11.50;99.90;;;;;;5027333;28;20040;-62
2024/03/22 09:19:32;;;;;;;21.60;14.18;;;11.60;99.90;;;;;;5021024;28;20558;-62
2024/03/22 09:22:18;;;;;;;23.98;13.77;;;11.70;99.90;;;;;;5025970;28;20033;-62
2024/03/22 09:25:04;;;;;;;32.92;14.88;;;11.80;99.90;;;;;;5025631;28;20033;-61
2024/03/22 09:27:50;;;;;;;24.05;13.85;;;11.90;99.90;;;;;;5019756;28;20851;-61
2024/03/22 09:30:40;;;;;;;27.67;13.40;;;11.90;99.90;;;;;;5025054;28;20034;-62
2024/03/22 09:33:26;;;;;;;28.40;12.35;;;12.00;99.90;;;;;;5020385;28;20037;-62
2024/03/22 09:36:12;;;;;;;27.73;14.10;;;12.10;99.90;;;;;;5016032;28;20128;-62
2024/03/22 09:38:57;;;;;;;21.80;12.55;;;12.20;99.90;;;;;;5019032;28;20037;-62
2024/03/22 09:41:44;;;;;;;23.45;12.30;;;12.20;99.90;;;;;;5027651;28;20033;-62
2024/03/22 09:44:32;;;;;;;19.38;10.80;;;12.30;99.90;;;;;;5020861;28;20037;-62
2024/03/22 09:47:20;;;;;;;22.45;11.05;;;12.30;99.90;;;;;;5031665;28;20095;-62
2024/03/22 09:50:08;;;;;;;20.35;10.95;;;12.20;99.90;;;;;;5020685;28;20065;-62
2024/03/22 09:52:56;;;;;;;21.17;11.57;;;12.30;99.90;;;;;;5022980;28;20088;-62
2024/03/22 09:55:43;;;;;;;19.52;10.50;;;12.30;99.90;;;;;;5028302;28;20398;-62
2024/03/22 09:58:29;;;;;;;18.27;11.10;;;12.40;99.90;;;;;;5025309;28;20041;-62
2024/03/22 10:01:16;;;;;;;21.43;10.83;;;12.30;99.90;;;;;;5032032;28;20040;-62
2024/03/22 10:04:02;;;;;;;20.90;10.75;;;12.40;99.90;;;;;;5016917;28;20291;-62
2024/03/22 10:06:48;;;;;;;17.60;10.00;;;12.30;99.90;;;;;;5031571;28;20041;-62
2024/03/22 10:09:34;;;;;;;15.30;8.43;;;12.40;99.90;;;;;;5006953;28;20113;-62
2024/03/22 10:12:20;;;;;;;15.77;8.73;;;12.40;99.90;;;;;;5026645;28;20053;-62
2024/03/22 10:15:11;;;;;;;18.58;8.60;;;12.60;99.90;;;;;;5027798;28;20765;-62
2024/03/22 10:17:57;;;;;;;17.60;9.07;;;12.70;99.90;;;;;;5018520;28;20125;-62
2024/03/22 10:20:43;;;;;;;14.48;9.18;;;12.80;99.90;;;;;;5024794;28;20042;-62
2024/03/22 10:23:29;;;;;;;16.45;8.57;;;12.80;99.90;;;;;;5016593;28;20034;-62
2024/03/22 10:26:16;;;;;;;19.48;8.52;;;12.90;99.90;;;;;;5018265;28;20037;-62
2024/03/22 10:29:06;;;;;;;15.88;8.45;;;13.00;99.90;;;;;;5021074;28;20116;-62
2024/03/22 10:31:53;;;;;;;16.52;8.52;;;13.20;99.90;;;;;;5030428;28;20041;-62
2024/03/22 10:34:42;;;;;;;17.70;8.77;;;13.30;99.90;;;;;;5023217;28;20037;-62
2024/03/22 10:37:28;;;;;;;23.27;9.23;;;13.40;99.90;;;;;;5022478;28;20437;-62
2024/03/22 10:40:14;;;;;;;16.13;9.55;;;13.40;99.90;;;;;;5013279;28;20519;-62
2024/03/22 10:43:02;;;;;;;18.75;9.63;;;13.40;99.90;;;;;;5025103;28;20044;-62
2024/03/22 10:45:49;;;;;;;20.00;9.05;;;13.50;99.90;;;;;;5028789;28;20035;-61
2024/03/22 10:48:37;;;;;;;15.25;8.55;;;13.60;99.90;;;;;;5025784;28;20037;-62
2024/03/22 10:51:25;;;;;;;16.25;9.40;;;13.60;99.90;;;;;;5031265;28;20047;-62
2024/03/22 10:54:22;;;;;;;16.08;8.75;;;13.50;99.90;;;;;;5027005;28;20061;-62
2024/03/22 10:57:13;;;;;;;16.58;8.63;;;13.50;99.90;;;;;;5025153;28;20075;-62
2024/03/22 10:59:59;;;;;;;11.75;8.07;;;13.60;99.90;;;;;;5027804;28;20084;-62
2024/03/22 11:02:45;;;;;;;16.23;8.02;;;13.60;99.90;;;;;;5026481;28;20104;-62
2024/03/22 11:05:31;;;;;;;14.73;7.45;;;13.60;99.90;;;;;;5011655;28;20041;-62
2024/03/22 11:08:28;;;;;;;13.55;7.43;;;13.60;99.90;;;;;;5026794;28;20092;-62
2024/03/22 11:11:17;;;;;;;17.42;7.45;;;13.60;99.90;;;;;;5028809;28;20032;-62
2024/03/22 11:14:04;;;;;;;12.27;7.38;;;13.70;99.90;;;;;;5024135;28;20104;-62
2024/03/22 11:16:50;;;;;;;11.43;7.20;;;13.60;99.90;;;;;;5025713;28;20033;-62
2024/03/22 11:19:38;;;;;;;11.82;6.50;;;13.70;99.90;;;;;;5024370;28;20280;-62
2024/03/22 11:22:27;;;;;;;14.88;7.53;;;13.70;99.90;;;;;;5026137;28;20045;-62
2024/03/22 11:25:13;;;;;;;12.05;7.00;;;13.80;99.90;;;;;;5023938;28;20083;-62
2024/03/22 11:28:01;;;;;;;13.98;7.28;;;13.80;99.90;;;;;;5022231;28;20076;-62
2024/03/22 11:30:47;;;;;;;10.43;6.07;;;13.80;99.90;;;;;;5025545;28;20044;-62
2024/03/22 11:33:34;;;;;;;16.35;7.55;;;13.90;99.90;;;;;;5021769;28;20048;-62
2024/03/22 11:36:20;;;;;;;15.07;6.60;;;14.00;99.90;;;;;;5025841;28;20041;-62
2024/03/22 11:39:07;;;;;;;8.80;5.18;;;14.00;99.90;;;;;;5023993;28;20092;-62
2024/03/22 11:41:53;;;;;;;12.57;6.03;;;14.10;99.90;;;;;;5027165;28;20091;-62
2024/03/22 11:44:40;;;;;;;9.18;5.82;;;14.10;99.90;;;;;;5022763;28;20095;-62
2024/03/22 11:47:25;;;;;;;6.30;4.55;;;14.10;99.90;;;;;;5016324;28;20037;-62
2024/03/22 11:50:15;;;;;;;10.75;6.25;;;14.20;99.90;;;;;;5023929;28;20636;-62
2024/03/22 11:53:03;;;;;;;12.98;5.60;;;14.20;99.90;;;;;;5023166;28;20067;-62
2024/03/22 11:55:49;;;;;;;7.30;5.15;;;14.20;99.90;;;;;;5022423;28;20037;-62
2024/03/22 11:58:35;;;;;;;9.98;5.40;;;14.10;99.90;;;;;;5022148;28;20116;-62
2024/03/22 12:01:22;;;;;;;9.25;4.95;;;14.00;99.90;;;;;;5024977;28;20665;-62
2024/03/22 12:04:14;;;;;;;9.05;4.55;;;14.00;99.90;;;;;;5019590;28;20030;-62
2024/03/22 12:07:00;;;;;;;8.35;4.68;;;13.90;99.90;;;;;;5023248;28;21182;-64
2024/03/22 12:09:46;;;;;;;8.77;4.57;;;13.80;99.90;;;;;;5023461;28;20505;-63
2024/03/22 12:12:32;;;;;;;10.57;5.30;;;13.80;99.90;;;;;;5017374;28;20030;-62
2024/03/22 12:15:18;;;;;;;12.68;5.45;;;13.70;99.90;;;;;;5026526;28;20129;-62
2024/03/22 12:18:04;;;;;;;10.93;5.43;;;13.70;99.90;;;;;;5030093;28;20060;-62
2024/03/22 12:20:50;;;;;;;9.17;5.20;;;13.70;99.90;;;;;;5034573;28;20037;-62
2024/03/22 12:23:36;;;;;;;6.45;4.40;;;13.70;99.90;;;;;;5028799;28;20049;-62
2024/03/22 12:26:22;;;;;;;15.10;5.18;;;13.60;99.90;;;;;;5031587;28;20442;-62
2024/03/22 12:29:10;;;;;;;9.98;3.90;;;13.60;99.90;;;;;;5029979;28;20028;-62
2024/03/22 12:31:56;;;;;;;6.97;4.15;;;13.60;99.90;;;;;;5029807;28;20044;-62
2024/03/22 12:34:42;;;;;;;9.30;4.87;;;13.60;99.90;;;;;;5022720;22;20127;-61
2024/03/22 12:37:28;;;;;;;8.88;4.32;;;13.60;99.90;;;;;;5005577;28;20631;-61
2024/03/22 12:40:14;;;;;;;9.48;5.05;;;13.70;99.90;;;;;;4987938;28;20033;-65
2024/03/22 12:42:59;;;;;;;14.83;4.67;;;13.80;99.90;;;;;;4998270;28;20092;-64
2024/03/22 12:45:45;;;;;;;9.18;4.35;;;13.90;99.90;;;;;;4995711;28;20037;-64
2024/03/22 12:48:31;;;;;;;7.40;4.13;;;13.90;99.90;;;;;;5000191;28;20176;-65
2024/03/22 12:51:17;;;;;;;7.53;4.28;;;13.90;99.90;;;;;;5002558;28;20030;-67
2024/03/22 12:54:03;;;;;;;8.00;4.47;;;13.80;99.90;;;;;;4999705;28;20034;-64
2024/03/22 12:56:49;;;;;;;7.60;4.20;;;13.70;99.90;;;;;;5003998;28;20121;-63
2024/03/22 12:59:35;;;;;;;6.28;3.97;;;13.60;99.90;;;;;;4978068;28;20294;-64
2024/03/22 13:02:21;;;;;;;10.70;3.95;;;13.40;99.90;;;;;;4991454;28;20046;-64
2024/03/22 13:05:07;;;;;;;9.77;3.85;;;13.30;99.90;;;;;;4991862;28;20476;-64
2024/03/22 13:07:53;;;;;;;9.82;4.28;;;13.30;99.90;;;;;;4982540;28;20046;-64
2024/03/22 13:10:43;;;;;;;9.98;4.35;;;13.20;99.90;;;;;;4981401;28;20121;-64
2024/03/22 13:13:29;;;;;;;9.18;3.83;;;13.20;99.90;;;;;;4985037;28;20046;-64
2024/03/22 13:16:14;;;;;;;6.05;3.88;;;13.20;99.90;;;;;;4989306;28;20337;-64
2024/03/22 13:19:00;;;;;;;6.40;4.32;;;13.20;99.90;;;;;;4995094;28;20038;-64
2024/03/22 13:21:48;;;;;;;7.35;3.72;;;13.30;99.90;;;;;;4994912;28;20037;-64
2024/03/22 13:24:35;;;;;;;7.63;4.05;;;13.30;99.90;;;;;;4995126;28;20046;-64
2024/03/22 13:27:22;;;;;;;17.05;4.45;;;13.20;99.90;;;;;;4988678;28;20042;-64
2024/03/22 13:30:10;;;;;;;7.88;3.70;;;13.10;99.90;;;;;;4994389;28;20112;-64
2024/03/22 13:32:56;;;;;;;10.75;5.47;;;13.10;99.90;;;;;;4990561;28;20034;-64
2024/03/22 13:35:45;;;;;;;10.48;5.20;;;13.20;99.90;;;;;;4995802;28;20038;-64
2024/03/22 13:38:31;;;;;;;7.97;4.20;;;13.20;99.90;;;;;;5038323;22;20068;-60
2024/03/22 13:41:16;;;;;;;6.20;4.03;;;13.20;99.90;;;;;;5042495;28;20106;-60
2024/03/22 13:44:07;;;;;;;13.68;4.80;;;13.20;99.90;;;;;;5039552;28;20029;-60
2024/03/22 13:46:54;;;;;;;9.45;4.18;;;13.20;99.90;;;;;;5046852;28;20040;-61
2024/03/22 13:49:41;;;;;;;8.75;5.07;;;13.30;99.90;;;;;;5041910;28;20037;-61
2024/03/22 13:52:27;;;;;;;11.25;4.63;;;13.40;99.90;;;;;;5046211;28;20029;-61
2024/03/22 13:55:13;;;;;;;8.02;4.07;;;13.40;99.90;;;;;;5042744;28;20650;-61
2024/03/22 13:57:58;;;;;;;5.90;3.67;;;13.50;99.90;;;;;;5037891;28;20632;-61
2024/03/22 14:00:44;;;;;;;6.63;3.13;;;13.40;99.90;;;;;;5040870;28;20051;-62
2024/03/22 14:03:30;;;;;;;6.07;3.22;;;13.40;99.90;;;;;;5040640;28;20040;-61
2024/03/22 14:06:16;;;;;;;7.55;3.88;;;13.30;99.90;;;;;;5041011;28;20064;-62
2024/03/22 14:09:03;;;;;;;14.95;4.07;;;13.20;99.90;;;;;;5039043;28;20117;-62
2024/03/22 14:11:49;;;;;;;;;;;13.10;99.90;;;;;;5040489;28;20493;-60
2024/03/22 14:14:35;;;;;;;7.55;3.17;;;13.10;99.90;;;;;;5040796;28;19909;-60